Valley City, Ohio
Current Conditions -  °F | °C
As of 2:51 PM on Saturday 25 Oct 2014 (Local Time) from KCLE Reporting Station
Few Clouds Few Clouds  
Wind Chill: 70°   Ceiling: Unl
Heat Index: 70°   Visibility: 10mi
Dew Point: 54°   Wind: 16mph
Humidity: 57%   Direction: 270°W
Pressure: 29.79"   Gusts: NA
Location:  41.24°N, 81.93°W
Report Text: KCLE 251851Z 27014KT 10SM FEW037 21/12 A2979 RMK AO2 SLP086 T02110122
Loading
Personal Weather Stations






























Interactive Weather Map
Tropical Storm Tracking
New forecast layout! Learn more

10-Day Weather Forecast

Advertisements
Track Severe Weather on mobile